createdAt,value
2018-11-27T00:00:38.290Z,3.01
2018-11-27T00:03:58.217Z,2.96
2018-11-27T00:07:03.095Z,2.88
2018-11-27T00:10:11.443Z,2.89
2018-11-27T00:13:16.319Z,2.98
2018-11-27T00:16:21.130Z,2.95
2018-11-27T00:19:26.093Z,2.94
2018-11-27T00:22:30.988Z,2.91
2018-11-27T00:25:36.544Z,2.89
2018-11-27T00:28:41.423Z,2.86
2018-11-27T00:31:46.247Z,2.83
2018-11-27T00:34:51.248Z,2.88
2018-11-27T00:37:56.177Z,2.87
2018-11-27T00:41:01.008Z,2.88
2018-11-27T00:44:06.627Z,2.82
2018-11-27T00:47:11.548Z,2.83
2018-11-27T00:50:22.982Z,2.84
2018-11-27T00:53:27.844Z,2.81
2018-11-27T00:56:32.703Z,2.95
2018-11-27T00:59:38.099Z,2.93
2018-11-27T01:02:42.985Z,2.98
2018-11-27T01:05:47.840Z,2.88
2018-11-27T01:08:53.197Z,2.81
2018-11-27T01:11:58.043Z,2.82
2018-11-27T01:15:02.893Z,2.84
2018-11-27T01:18:08.119Z,2.82
2018-11-27T01:21:13.028Z,3.04
2018-11-27T01:24:17.994Z,2.99
2018-11-27T01:27:22.842Z,2.93
2018-11-27T01:30:27.708Z,2.93
2018-11-27T01:33:32.568Z,2.87
2018-11-27T01:36:38.003Z,2.87
2018-11-27T01:39:42.852Z,2.82
2018-11-27T01:42:48.588Z,2.85
2018-11-27T01:45:53.437Z,2.78
2018-11-27T01:48:58.356Z,2.95
2018-11-27T01:52:03.207Z,2.95
2018-11-27T01:55:09.699Z,2.94
2018-11-27T01:58:14.557Z,2.87
2018-11-27T02:01:19.364Z,2.98
2018-11-27T02:04:24.274Z,3.11
2018-11-27T02:07:29.072Z,3.02
2018-11-27T02:10:33.968Z,3.12
2018-11-27T02:13:38.814Z,3.04
2018-11-27T02:16:43.644Z,2.85
2018-11-27T02:19:48.722Z,2.81
2018-11-27T02:22:53.594Z,2.72
2018-11-27T02:25:58.438Z,2.67
2018-11-27T02:29:03.362Z,2.57
2018-11-27T02:32:08.623Z,2.56
2018-11-27T02:35:17.390Z,2.49
2018-11-27T02:38:22.277Z,2.32
2018-11-27T02:41:27.110Z,2.54
2018-11-27T02:44:31.976Z,2.45
2018-11-27T02:47:36.800Z,2.39
2018-11-27T02:50:41.803Z,2.41
2018-11-27T02:53:46.718Z,2.49
2018-11-27T02:56:51.593Z,2.40
2018-11-27T02:59:56.424Z,2.26
2018-11-27T03:03:01.307Z,2.21
2018-11-27T03:06:07.362Z,2.24
2018-11-27T03:09:12.271Z,2.23
2018-11-27T03:12:17.079Z,2.28
2018-11-27T03:15:21.978Z,2.27
2018-11-27T03:18:26.808Z,2.14
2018-11-27T03:21:31.659Z,2.10
2018-11-27T03:24:36.500Z,2.13
2018-11-27T03:27:41.323Z,2.14
2018-11-27T03:30:46.183Z,2.06
2018-11-27T03:33:51.183Z,2.12
2018-11-27T03:36:56.068Z,1.92
2018-11-27T03:40:00.972Z,1.91
2018-11-27T03:43:05.922Z,2.01
2018-11-27T03:46:10.737Z,1.86
2018-11-27T03:49:15.611Z,1.98
2018-11-27T03:52:20.440Z,1.97
2018-11-27T03:55:25.355Z,1.92
2018-11-27T03:58:30.282Z,1.95
2018-11-27T04:01:35.486Z,2.20
2018-11-27T04:04:40.473Z,1.93
2018-11-27T04:07:45.417Z,1.95
2018-11-27T04:10:50.363Z,2.05
2018-11-27T04:13:55.199Z,1.91
2018-11-27T04:17:00.138Z,1.85
2018-11-27T04:20:05.478Z,1.87
2018-11-27T04:23:10.363Z,1.73
2018-11-27T04:26:15.181Z,1.67
2018-11-27T04:29:20.154Z,1.61
2018-11-27T04:32:25.115Z,1.60
2018-11-27T04:35:30.011Z,1.58
2018-11-27T04:38:34.911Z,1.43
2018-11-27T04:41:39.849Z,1.58
2018-11-27T04:44:44.696Z,1.55
2018-11-27T04:47:49.635Z,1.50
2018-11-27T04:50:54.715Z,1.54
2018-11-27T04:53:59.544Z,1.43
2018-11-27T04:57:04.395Z,1.29
2018-11-27T05:00:29.367Z,1.31
2018-11-27T05:03:34.186Z,1.28
2018-11-27T05:06:39.175Z,1.22
2018-11-27T05:09:44.050Z,1.31
2018-11-27T05:12:48.912Z,1.23
2018-11-27T05:15:53.787Z,1.14
2018-11-27T05:18:58.588Z,1.13
2018-11-27T05:22:03.432Z,1.25
2018-11-27T05:25:10.624Z,1.33
2018-11-27T05:28:15.461Z,1.19
2018-11-27T05:31:20.317Z,1.23
2018-11-27T05:34:25.218Z,1.11
2018-11-27T05:37:30.518Z,1.04
2018-11-27T05:40:35.417Z,0.99
2018-11-27T05:43:40.277Z,1.04
2018-11-27T05:46:45.183Z,0.92
2018-11-27T05:49:50.007Z,0.99
2018-11-27T05:52:55.019Z,0.99
2018-11-27T05:55:59.939Z,0.89
2018-11-27T05:59:04.793Z,0.90
2018-11-27T06:02:09.747Z,0.84
2018-11-27T06:05:18.782Z,0.87
2018-11-27T06:08:23.641Z,0.86
2018-11-27T06:11:28.567Z,0.87
2018-11-27T06:14:33.441Z,0.84
2018-11-27T06:17:38.495Z,0.79
2018-11-27T06:20:43.361Z,0.77
2018-11-27T06:23:48.247Z,0.75
2018-11-27T06:26:53.119Z,0.76
2018-11-27T06:29:58.122Z,0.77
2018-11-27T06:33:03.001Z,0.83
2018-11-27T06:36:08.877Z,0.81
2018-11-27T06:39:13.757Z,0.82
2018-11-27T06:42:18.657Z,0.82
2018-11-27T06:45:24.229Z,0.80
2018-11-27T06:48:29.291Z,0.96
2018-11-27T06:51:34.176Z,0.91
2018-11-27T06:54:39.220Z,1.04
2018-11-27T06:57:44.221Z,0.90
2018-11-27T07:00:49.063Z,0.88
2018-11-27T07:03:53.927Z,0.81
2018-11-27T07:06:58.758Z,0.76
2018-11-27T07:10:03.657Z,0.81
2018-11-27T07:13:13.446Z,0.79
2018-11-27T07:16:18.415Z,0.76
2018-11-27T07:19:23.240Z,0.79
2018-11-27T07:22:28.165Z,0.74
2018-11-27T07:25:33.106Z,0.68
2018-11-27T07:28:38.733Z,0.72
2018-11-27T07:31:43.648Z,0.73
2018-11-27T07:34:48.471Z,0.74
2018-11-27T07:37:53.508Z,0.78
2018-11-27T07:40:58.316Z,0.72
2018-11-27T07:44:03.293Z,0.86
2018-11-27T07:47:08.846Z,0.75
2018-11-27T07:50:14.348Z,0.82
2018-11-27T07:53:19.195Z,0.80
2018-11-27T07:56:24.291Z,0.76
2018-11-27T07:59:29.224Z,0.83
2018-11-27T08:02:34.123Z,0.88
2018-11-27T08:05:42.718Z,1.03
2018-11-27T08:08:47.716Z,1.11
2018-11-27T08:11:52.644Z,0.93
2018-11-27T08:14:57.802Z,1.05
2018-11-27T08:18:02.691Z,1.01
2018-11-27T08:21:08.096Z,1.04
2018-11-27T08:24:13.011Z,1.02
2018-11-27T08:27:17.896Z,1.20
2018-11-27T08:30:24.529Z,1.19
2018-11-27T08:33:29.331Z,1.26
2018-11-27T08:36:34.256Z,1.14
2018-11-27T08:39:39.125Z,1.18
2018-11-27T08:42:44.010Z,1.34
2018-11-27T08:45:48.887Z,1.16
2018-11-27T08:48:53.765Z,1.26
2018-11-27T08:51:58.610Z,1.43
2018-11-27T08:55:03.441Z,1.42
2018-11-27T08:58:19.116Z,1.19
2018-11-27T09:01:24.125Z,1.40
2018-11-27T09:04:29.044Z,1.33
2018-11-27T09:07:33.944Z,1.39
2018-11-27T09:10:39.041Z,1.28
2018-11-27T09:13:43.911Z,1.40
2018-11-27T09:16:48.870Z,1.47
2018-11-27T09:19:53.742Z,1.51
2018-11-27T09:22:58.617Z,1.27
2018-11-27T09:26:03.453Z,1.40
2018-11-27T09:29:08.457Z,1.66
2018-11-27T09:32:13.386Z,1.65
2018-11-27T09:35:18.274Z,1.80
2018-11-27T09:38:23.182Z,1.79
2018-11-27T09:41:28.071Z,2.12
2018-11-27T09:44:32.901Z,1.92
2018-11-27T09:47:38.082Z,1.96
2018-11-27T09:50:42.987Z,1.96
2018-11-27T09:53:47.873Z,1.97
2018-11-27T09:56:52.745Z,1.87
2018-11-27T09:59:57.623Z,1.92
2018-11-27T10:03:16.086Z,1.98
2018-11-27T10:06:20.933Z,2.06
2018-11-27T10:09:25.805Z,2.25
2018-11-27T10:12:30.681Z,2.58
2018-11-27T10:15:35.658Z,2.61
2018-11-27T10:18:40.530Z,2.37
2018-11-27T10:21:45.486Z,2.50
2018-11-27T10:24:50.410Z,2.54
2018-11-27T10:27:55.302Z,2.30
2018-11-27T10:31:00.261Z,2.36
2018-11-27T10:34:05.141Z,2.30
2018-11-27T10:37:10.261Z,2.31
2018-11-27T10:40:15.232Z,2.36
2018-11-27T10:43:20.596Z,2.67
2018-11-27T10:46:25.506Z,2.41
2018-11-27T10:49:30.613Z,2.37
2018-11-27T10:52:35.582Z,2.44
2018-11-27T10:55:40.607Z,2.44
2018-11-27T10:58:45.558Z,2.41
2018-11-27T11:02:14.695Z,2.25
2018-11-27T11:05:24.496Z,2.25
2018-11-27T11:08:29.458Z,2.55
2018-11-27T11:11:34.306Z,2.62
2018-11-27T11:14:39.355Z,2.40
2018-11-27T11:17:44.262Z,2.43
2018-11-27T11:20:49.065Z,2.29
2018-11-27T11:23:54.000Z,2.40
2018-11-27T11:26:59.194Z,2.47
2018-11-27T11:30:04.182Z,2.81
2018-11-27T11:33:09.890Z,2.74
2018-11-27T11:39:28.338Z,2.35
2018-11-27T11:42:33.320Z,2.31
2018-11-27T11:45:38.189Z,2.51
2018-11-27T11:48:49.090Z,2.73
2018-11-27T11:51:48.874Z,2.39
2018-11-27T11:54:53.731Z,2.40
2018-11-27T11:57:58.584Z,2.34
2018-11-27T12:01:03.461Z,2.60
2018-11-27T12:04:08.754Z,2.81
2018-11-27T12:07:14.070Z,2.89
2018-11-27T12:10:18.879Z,3.21
2018-11-27T12:13:23.751Z,2.74
2018-11-27T12:16:28.740Z,2.62
2018-11-27T12:19:33.746Z,2.57
2018-11-27T12:22:39.715Z,2.51
2018-11-27T12:25:44.616Z,2.81
2018-11-27T12:28:49.487Z,2.70
2018-11-27T12:31:54.335Z,2.51
2018-11-27T12:34:59.202Z,2.75
2018-11-27T12:38:04.273Z,2.56
2018-11-27T12:41:10.332Z,3.01
2018-11-27T12:44:14.954Z,2.96
2018-11-27T12:47:19.811Z,3.06
2018-11-27T12:50:38.698Z,2.61
2018-11-27T12:53:43.747Z,2.96
2018-11-27T12:56:48.690Z,2.80
2018-11-27T12:59:53.530Z,2.58
2018-11-27T13:02:58.494Z,2.44
2018-11-27T13:06:03.795Z,2.52
2018-11-27T13:09:12.394Z,2.75
2018-11-27T13:12:17.341Z,2.61
2018-11-27T13:15:22.808Z,2.44
2018-11-27T13:18:27.787Z,2.35
2018-11-27T13:21:32.613Z,2.44
2018-11-27T13:24:37.521Z,2.47
2018-11-27T13:27:42.510Z,2.65
2018-11-27T13:31:02.148Z,2.53
2018-11-27T13:34:17.159Z,2.22
2018-11-27T13:37:22.050Z,2.13
2018-11-27T13:40:26.971Z,2.24
2018-11-27T13:43:32.034Z,2.15
2018-11-27T13:46:37.020Z,2.05
2018-11-27T13:49:41.876Z,2.12
2018-11-27T13:52:46.831Z,2.07
2018-11-27T13:55:51.673Z,2.20
2018-11-27T13:58:56.662Z,1.91
2018-11-27T14:02:01.650Z,2.05
2018-11-27T14:05:08.432Z,2.20
2018-11-27T14:08:13.789Z,2.03
2018-11-27T14:11:19.190Z,1.96
2018-11-27T14:14:24.224Z,1.77
2018-11-27T14:17:29.154Z,1.61
2018-11-27T14:20:34.233Z,1.60
2018-11-27T14:23:39.929Z,1.61
2018-11-27T14:26:44.894Z,1.50
2018-11-27T14:29:49.810Z,1.40
2018-11-27T14:32:55.145Z,1.32
2018-11-27T14:36:00.055Z,1.17
2018-11-27T14:39:07.349Z,1.16
2018-11-27T14:42:12.235Z,1.16
2018-11-27T14:45:24.198Z,1.16
2018-11-27T14:48:29.135Z,1.03
2018-11-27T14:51:34.022Z,0.90
2018-11-27T14:54:38.959Z,0.78
2018-11-27T14:57:43.820Z,0.71
2018-11-27T15:00:48.650Z,0.55
2018-11-27T15:03:53.524Z,0.57
2018-11-27T15:06:58.434Z,0.40
2018-11-27T15:10:03.300Z,0.33
2018-11-27T15:13:08.900Z,0.25
2018-11-27T15:16:13.764Z,0.27
2018-11-27T15:19:18.618Z,0.24
2018-11-27T15:22:23.518Z,0.22
2018-11-27T15:25:28.434Z,0.10
2018-11-27T15:28:33.336Z,0.14
2018-11-27T15:31:38.139Z,0.04
2018-11-27T15:34:42.995Z,-0.00
2018-11-27T15:37:47.901Z,-0.10
2018-11-27T15:40:52.772Z,-0.17
2018-11-27T15:43:57.684Z,-0.23
2018-11-27T15:47:02.502Z,-0.27
2018-11-27T15:50:09.210Z,-0.30
2018-11-27T15:53:14.116Z,-0.34
2018-11-27T15:56:18.974Z,-0.35
2018-11-27T15:59:23.831Z,-0.32
2018-11-27T16:02:28.776Z,-0.35
2018-11-27T16:05:33.647Z,-0.47
2018-11-27T16:08:38.501Z,-0.38
2018-11-27T16:11:43.388Z,-0.53
2018-11-27T16:14:48.295Z,-0.70
2018-11-27T16:17:53.158Z,-0.46
2018-11-27T16:20:58.015Z,-0.52
2018-11-27T16:24:02.864Z,-0.69
2018-11-27T16:27:07.739Z,-0.65
2018-11-27T16:30:22.592Z,-0.68
2018-11-27T16:33:27.464Z,-0.69
2018-11-27T16:36:32.435Z,-0.69
2018-11-27T16:39:37.419Z,-0.66
2018-11-27T16:42:42.351Z,-0.81
2018-11-27T16:45:47.271Z,-1.04
2018-11-27T16:48:52.249Z,-0.94
2018-11-27T16:51:57.230Z,-0.77
2018-11-27T16:55:02.266Z,-0.73
2018-11-27T16:58:07.161Z,-0.77
2018-11-27T17:01:12.036Z,-0.93
2018-11-27T17:04:16.965Z,-0.75
2018-11-27T17:07:21.960Z,-0.79
2018-11-27T17:10:26.824Z,-0.76
2018-11-27T17:13:31.690Z,-0.82
2018-11-27T17:16:36.875Z,-1.14
2018-11-27T17:19:41.725Z,-1.34
2018-11-27T17:22:46.645Z,-1.43
2018-11-27T17:25:51.591Z,-1.53
2018-11-27T17:28:56.427Z,-1.14
2018-11-27T17:32:01.311Z,-0.94
2018-11-27T17:35:07.311Z,-0.86
2018-11-27T17:38:12.191Z,-0.88
2018-11-27T17:41:17.106Z,-0.89
2018-11-27T17:44:22.079Z,-0.99
2018-11-27T17:47:26.990Z,-1.17
2018-11-27T17:50:31.946Z,-1.02
2018-11-27T17:53:36.935Z,-1.36
2018-11-27T17:56:41.956Z,-1.19
2018-11-27T17:59:46.854Z,-1.57
2018-11-27T18:02:55.745Z,-1.67
2018-11-27T18:06:00.615Z,-1.62
2018-11-27T18:09:08.394Z,-1.45
2018-11-27T18:12:13.273Z,-1.60
2018-11-27T18:15:22.236Z,-1.62
2018-11-27T18:18:27.119Z,-1.83
2018-11-27T18:21:32.250Z,-1.80
2018-11-27T18:24:37.108Z,-1.77
2018-11-27T18:27:42.949Z,-1.95
2018-11-27T18:30:47.935Z,-1.89
2018-11-27T18:33:53.016Z,-1.71
2018-11-27T18:36:57.918Z,-1.83
2018-11-27T18:40:02.877Z,-1.39
2018-11-27T18:43:08.105Z,-1.28
2018-11-27T18:46:13.029Z,-1.18
2018-11-27T18:49:18.026Z,-1.13
2018-11-27T18:52:22.925Z,-1.15
2018-11-27T18:55:27.847Z,-1.06
2018-11-27T18:58:32.740Z,-1.13
2018-11-27T19:01:37.857Z,-1.03
2018-11-27T19:04:42.853Z,-1.02
2018-11-27T19:07:47.936Z,-1.03
2018-11-27T19:10:52.814Z,-1.00
2018-11-27T19:13:57.749Z,-1.05
2018-11-27T19:17:02.788Z,-1.06
2018-11-27T19:20:10.711Z,-1.04
2018-11-27T19:23:15.618Z,-1.06
2018-11-27T19:26:20.521Z,-0.99
2018-11-27T19:29:25.406Z,-1.06
2018-11-27T19:32:30.309Z,-1.09
2018-11-27T19:35:35.269Z,-1.19
2018-11-27T19:38:41.010Z,-1.09
2018-11-27T19:41:45.933Z,-1.12
2018-11-27T19:44:50.888Z,-1.06
2018-11-27T19:47:56.338Z,-1.08
2018-11-27T19:51:01.211Z,-1.06
2018-11-27T19:54:06.214Z,-1.02
2018-11-27T19:57:11.958Z,-1.12
2018-11-27T20:00:30.077Z,-1.03
2018-11-27T20:03:35.009Z,-1.15
2018-11-27T20:06:40.114Z,-1.09
2018-11-27T20:09:44.985Z,-1.13
2018-11-27T20:12:49.931Z,-1.20
2018-11-27T20:15:54.804Z,-1.23
2018-11-27T20:18:59.809Z,-1.60
2018-11-27T20:22:04.743Z,-1.43
2018-11-27T20:25:14.484Z,-1.35
2018-11-27T20:28:19.337Z,-1.41
2018-11-27T20:31:24.182Z,-1.34
2018-11-27T20:34:29.057Z,-1.47
2018-11-27T20:37:34.070Z,-1.44
2018-11-27T20:40:39.052Z,-1.52
2018-11-27T20:43:43.985Z,-1.58
2018-11-27T20:46:48.899Z,-1.59
2018-11-27T20:49:53.915Z,-1.61
2018-11-27T20:52:58.804Z,-1.61
2018-11-27T20:56:03.723Z,-1.57
2018-11-27T20:59:08.784Z,-1.62
2018-11-27T21:02:13.643Z,-1.74
2018-11-27T21:05:18.578Z,-1.63
2018-11-27T21:08:24.347Z,-1.61
2018-11-27T21:11:29.279Z,-1.61
2018-11-27T21:14:34.252Z,-1.64
2018-11-27T21:17:39.432Z,-1.62
2018-11-27T21:20:45.234Z,-1.59
2018-11-27T21:23:50.102Z,-1.56
2018-11-27T21:26:55.002Z,-1.49
2018-11-27T21:29:59.873Z,-1.68
2018-11-27T21:33:04.763Z,-1.80
2018-11-27T21:36:09.625Z,-1.82
2018-11-27T21:39:14.538Z,-1.79
2018-11-27T21:42:19.489Z,-1.89
2018-11-27T21:45:31.311Z,-1.94
2018-11-27T21:48:36.212Z,-1.77
2018-11-27T21:51:41.553Z,-1.82
2018-11-27T21:54:46.532Z,-1.83
2018-11-27T21:57:51.437Z,-1.84
2018-11-27T22:00:56.334Z,-1.76
2018-11-27T22:04:01.243Z,-1.69
2018-11-27T22:07:06.229Z,-1.73
2018-11-27T22:10:18.173Z,-1.79
2018-11-27T22:13:23.073Z,-1.70
2018-11-27T22:16:37.857Z,-1.63
2018-11-27T22:19:46.321Z,-1.68
2018-11-27T22:23:09.636Z,-1.78
2018-11-27T22:26:25.172Z,-1.82
2018-11-27T22:29:49.756Z,-1.80
2018-11-27T22:33:01.543Z,-1.82
2018-11-27T22:36:09.356Z,-1.86
2018-11-27T22:39:21.163Z,-1.87
2018-11-27T22:42:26.083Z,-1.90
2018-11-27T22:45:35.583Z,-1.87
2018-11-27T22:48:40.531Z,-1.87
2018-11-27T22:51:45.393Z,-1.89
2018-11-27T22:54:50.246Z,-2.00
2018-11-27T22:57:55.142Z,-1.93
2018-11-27T23:00:59.961Z,-1.84
2018-11-27T23:04:04.850Z,-1.94
2018-11-27T23:07:10.609Z,-1.93
2018-11-27T23:10:16.104Z,-1.84
2018-11-27T23:13:21.018Z,-1.90
2018-11-27T23:16:25.968Z,-1.94
2018-11-27T23:19:30.798Z,-2.06
2018-11-27T23:22:35.658Z,-2.02
2018-11-27T23:25:40.660Z,-2.02
2018-11-27T23:28:45.626Z,-2.06
2018-11-27T23:31:50.517Z,-2.05
2018-11-27T23:34:55.541Z,-2.01
2018-11-27T23:38:00.521Z,-2.04
2018-11-27T23:41:05.311Z,-2.00
2018-11-27T23:44:10.232Z,-1.93
2018-11-27T23:47:15.059Z,-2.02
2018-11-27T23:50:21.251Z,-2.05
2018-11-27T23:53:27.373Z,-1.99
2018-11-27T23:56:32.246Z,-2.09
2018-11-27T23:59:37.170Z,-2.04
